METAR stanice u blizini

 

LYBE - Beograd / Surčin, Srbija
Ažurirano: 07/12/2019 16:00
Mist, Delimično oblačno
Mist, Delimično oblačno
 Pravac vetra S
Vetar: S 7 km/h
Temperatura: 8°C
Osećaj hladnoće: 7°C
Tačka rose: 6°C
Vlažnost: 87%
Pritisak: 1018 hPa
Pregled: Mist
Oblaci: Partly Cloudy
Vidljivost: 3 km
2019/12/07 15:00 LYBE 071500Z 01004KT 3000 BR NSC 08/06 Q1018 NOSIG
LYBT - Beograd / Batajnica, Srbija
Ažurirano: 07/12/2019 16:00
Mist, Delimično oblačno
Mist, Delimično oblačno
 Pravac vetra calm
Vetar: Tišina
Temperatura: 7°C
Tačka rose: 6°C
Vlažnost: 93%
Pritisak: 1018 hPa
Pregled: Mist
Oblaci: Partly Cloudy
Vidljivost: 3 km
Cloud details: Partly Cloudy 1219 m
2019/12/07 15:00 LYBT 071500Z 00000KT 3000 BR SCT040 07/06 Q1018 NOSIG
LYVR - Vršac, Srbija
Ažurirano: 07/12/2019 16:00
Mostly Cloudy
Mostly Cloudy
 Pravac vetra SZ
Vetar: SZ 6 km/h
Temperatura: 8°C
Tačka rose: 6°C
Vlažnost: 87%
Pritisak: 1018 hPa
Oblaci: Mostly Cloudy
Vidljivost: 10 km
Cloud details: Mostly Cloudy 792 m
2019/12/07 15:00 LYVR 071500Z 32003KT 9999 BKN026 08/06 Q1018 NOSIG
 
LYKV - Lađevci, Srbija
Ažurirano: 07/12/2019 16:00
Few Clouds
Few Clouds
 Pravac vetra varies
Vetar: varies 4 km/h
Temperatura: 10°C
Tačka rose: 8°C
Vlažnost: 88%
Pritisak: 1017 hPa
Oblaci: Few Clouds
Vidljivost: 8 km
Cloud details: Few Clouds 1433 m
2019/12/07 15:00 LYKV 071500Z VRB02KT 8000 FEW047 10/08 Q1017 NOSIG
LYNI - Niš, Srbija
Ažurirano: 07/12/2019 16:00
Partly Cloudy
Partly Cloudy
 Pravac vetra JJI
Vetar: JJI 6 km/h
Temperatura: 7°C
Tačka rose: 5°C
Vlažnost: 87%
Pritisak: 1019 hPa
Oblaci: Partly Cloudy
Vidljivost: 10 km
Cloud details: Partly Cloudy 1524 m
2019/12/07 15:00 LYNI 071500Z 15003KT 090V200 9999 SCT050 07/05 Q1019 NOSIG
BKPR - Priština, Srbija
Ažurirano: 07/12/2019 16:00
Mist, Pretežno oblačno
Mist, Pretežno oblačno
 Pravac vetra varies
Vetar: varies 6 km/h
Temperatura: 6°C
Tačka rose: 3°C
Vlažnost: 81%
Pritisak: 1018 hPa
Pregled: Mist
Oblaci: Mostly Cloudy
Vidljivost: 4 km
Cloud details: Partly Cloudy 305 m
Mostly Cloudy 1067 m
2019/12/07 15:00 BKPR 071500Z VRB03KT 4000 BR SCT010 BKN035 06/03 Q1018 NOSIG RMK 17010095
 
LHPP - Pecs / Pogany, Hungary
Ažurirano: 07/12/2019 15:48
Mist, Oblačno
Mist, Oblačno
 Pravac vetra calm
Vetar: Tišina
Temperatura: 5°C
Tačka rose: 4°C
Vlažnost: 93%
Pritisak: 1019 hPa
Pregled: Mist
Oblaci: Oblačno
Vidljivost: 2 km
Cloud details: Oblačno 152 m
2019/12/07 14:48 LHPP 071448Z 00000KT 2000 BR OVC005 05/04 Q1019
LHUD - Szeged, Hungary
Ažurirano: 04/07/2019 01:45
NOT Current
Vedro
Vedro
 Pravac vetra S
Vetar: S 7 km/h
Temperatura: 18°C
Tačka rose: 13°C
Vlažnost: 73%
Pritisak: 1019 hPa
Pregled: Vedro
Vidljivost: greater than 10 km
2019/07/03 23:45 LHUD 032345Z 35004KT CAVOK 18/13 Q1019
LRTR - Timisoara, Romania
Ažurirano: 07/12/2019 16:00
Slaba kiša, Few clouds
Slaba kiša, Few clouds
 Pravac vetra IJI
Vetar: IJI 6 km/h
Temperatura: 5°C
Tačka rose: 4°C
Vlažnost: 93%
Pritisak: 1018 hPa
Pregled: Light Rain
Oblaci: Few Clouds
Vidljivost: 7 km
Cloud details: Few Clouds 671 m
2019/12/07 15:00 LRTR 071500Z 12003KT 7000 -RA FEW022 05/04 Q1018 R11/290095
 
LRCV - Craiova, Romania
Ažurirano: 07/12/2019 16:00
Vedro
Vedro
 Pravac vetra JZ
Vetar: JZ 11 km/h
Temperatura: 4°C
Osećaj hladnoće: 1°C
Tačka rose: 2°C
Vlažnost: 87%
Pritisak: 1015 hPa
Pregled: Vedro
Vidljivost: greater than 10 km
2019/12/07 15:00 LRCV 071500Z 22006KT CAVOK 04/02 Q1015
LBSF - Sofia, Bulgaria
Ažurirano: 07/12/2019 16:00
Mist, Pretežno oblačno
Mist, Pretežno oblačno
 Pravac vetra varies
Vetar: varies 4 km/h
Temperatura: 0°C
Tačka rose: 0°C
Vlažnost: 100%
Pritisak: 1018 hPa
Pregled: Mist
Oblaci: Mostly Cloudy
Vidljivost: 3 km
Cloud details: Few Clouds 732 m
Mostly Cloudy 1768 m
2019/12/07 15:00 LBSF 071500Z VRB02KT 3000 BR FEW024 BKN058 00/00 Q1018 TEMPO 1500 BR
LWSK - Skoplje, Makedonija
Ažurirano: 07/12/2019 16:00
Partly Cloudy
Partly Cloudy
 Pravac vetra calm
Vetar: Tišina
Temperatura: 7°C
Tačka rose: 4°C
Vlažnost: 81%
Pritisak: 1019 hPa
Oblaci: Partly Cloudy
Vidljivost: 8 km
Cloud details: Few Clouds 792 m
Partly Cloudy 2286 m
2019/12/07 15:00 LWSK 071500Z 00000KT 8000 FEW026 SCT075 07/04 Q1019 NOSIG
 
LYPG - Podgorica, Crna Gora
Ažurirano: 07/12/2019 16:00
Partly Cloudy
Partly Cloudy
 Pravac vetra calm
Vetar: Tišina
Temperatura: 13°C
Tačka rose: 8°C
Vlažnost: 72%
Pritisak: 1018 hPa
Oblaci: Partly Cloudy
Vidljivost: 10 km
Cloud details: Few Clouds 1006 m
Partly Cloudy 1524 m
2019/12/07 15:00 LYPG 071500Z 00000KT 9999 FEW033 SCT050 13/08 Q1018 NOSIG
LQSA - Sarajevo, Bosna i Hercegovina
Ažurirano: 07/12/2019 16:00
Mist, Pretežno oblačno
Mist, Pretežno oblačno
 Pravac vetra varies
Vetar: varies 4 km/h
Temperatura: 3°C
Tačka rose: 3°C
Vlažnost: 100%
Pritisak: 1018 hPa
Pregled: Mist
Oblaci: Mostly Cloudy
Vidljivost: 1 km
Cloud details: Partly Cloudy 122 m
Mostly Cloudy 2134 m
2019/12/07 15:00 LQSA 071500Z VRB02KT 1100 R11/1200N BR SCT004 BKN070 03/03 Q1018 NOSIG
LDOS - Osijek, Hrvatksa
Ažurirano: 07/12/2019 16:00
Vedro
Vedro
 Pravac vetra I
Vetar: I 6 km/h
Temperatura: 6°C
Tačka rose: 5°C
Vlažnost: 93%
Pritisak: 1018 hPa
Pregled: Vedro
Vidljivost: greater than 10 km
2019/12/07 15:00 LDOS 071500Z 08003KT CAVOK 06/05 Q1018